createdAt,value
2023-04-20T00:01:42.961Z,99504.08
2023-04-20T00:04:11.546Z,99503.48
2023-04-20T00:06:40.093Z,99498.20
2023-04-20T00:09:08.857Z,99495.35
2023-04-20T00:11:37.688Z,99492.99
2023-04-20T00:14:06.914Z,99493.27
2023-04-20T00:16:35.418Z,99487.52
2023-04-20T00:19:04.046Z,99480.98
2023-04-20T00:21:32.525Z,99483.13
2023-04-20T00:24:01.308Z,99482.21
2023-04-20T00:26:30.892Z,99475.66
2023-04-20T00:28:59.439Z,99476.20
2023-04-20T00:31:28.246Z,99467.32
2023-04-20T00:33:56.743Z,99462.59
2023-04-20T00:36:25.234Z,99455.70
2023-04-20T00:38:53.955Z,99461.13
2023-04-20T00:41:22.410Z,99450.46
2023-04-20T00:43:56.797Z,99438.30
2023-04-20T00:46:27.056Z,99438.07
2023-04-20T00:48:56.580Z,99435.17
2023-04-20T00:51:26.309Z,99436.02
2023-04-20T00:53:54.728Z,99436.36
2023-04-20T00:56:23.647Z,99437.61
2023-04-20T00:58:52.180Z,99431.07
2023-04-20T01:01:21.199Z,99426.42
2023-04-20T01:03:49.724Z,99427.34
2023-04-20T01:06:18.337Z,99429.87
2023-04-20T01:08:51.867Z,99433.80
2023-04-20T01:11:20.357Z,99432.52
2023-04-20T01:13:50.134Z,99427.80
2023-04-20T01:16:18.599Z,99423.61
2023-04-20T01:18:49.301Z,99415.75
2023-04-20T01:21:22.402Z,99401.98
2023-04-20T01:23:50.960Z,99394.09
2023-04-20T01:26:21.969Z,99392.31
2023-04-20T01:28:52.799Z,99385.66
2023-04-20T01:31:22.893Z,99382.34
2023-04-20T01:33:52.432Z,99377.95
2023-04-20T01:36:22.448Z,99376.02
2023-04-20T01:38:52.549Z,99376.67
2023-04-20T01:41:21.225Z,99374.86
2023-04-20T01:43:51.577Z,99376.73
2023-04-20T01:46:20.029Z,99378.11
2023-04-20T01:48:48.888Z,99379.42
2023-04-20T01:51:17.451Z,99387.05
2023-04-20T01:53:46.154Z,99390.73
2023-04-20T01:56:14.584Z,99390.64
2023-04-20T01:58:44.714Z,99391.33
2023-04-20T02:01:13.078Z,99408.20
2023-04-20T02:03:41.545Z,99419.01
2023-04-20T02:06:10.124Z,99418.30
2023-04-20T02:08:38.437Z,99415.70
2023-04-20T02:11:09.618Z,99420.30
2023-04-20T02:13:38.254Z,99421.45
2023-04-20T02:16:07.582Z,99418.95
2023-04-20T02:18:37.506Z,99421.16
2023-04-20T02:21:06.371Z,99421.97
2023-04-20T02:23:35.391Z,99424.98
2023-04-20T02:26:03.796Z,99417.95
2023-04-20T02:28:33.001Z,99417.38
2023-04-20T02:31:01.427Z,99418.39
2023-04-20T02:33:30.140Z,99419.08
2023-04-20T02:35:58.458Z,99422.11
2023-04-20T02:38:27.427Z,99425.94
2023-04-20T02:40:55.899Z,99425.89
2023-04-20T02:43:24.210Z,99431.77
2023-04-20T02:45:52.640Z,99435.48
2023-04-20T02:48:22.575Z,99439.76
2023-04-20T02:50:50.945Z,99442.04
2023-04-20T02:53:24.469Z,99440.27
2023-04-20T02:56:00.155Z,99444.80
2023-04-20T02:58:43.997Z,99446.92
2023-04-20T03:01:32.939Z,99454.61
2023-04-20T03:04:06.782Z,99458.88
2023-04-20T03:06:40.901Z,99457.23
2023-04-20T03:09:11.041Z,99454.59
2023-04-20T03:11:55.068Z,99447.91
2023-04-20T03:14:43.745Z,99448.71
2023-04-20T03:17:12.113Z,99446.42
2023-04-20T03:19:41.733Z,99445.64
2023-04-20T03:22:10.452Z,99447.74
2023-04-20T03:24:39.338Z,99446.71
2023-04-20T03:27:17.079Z,99447.92
2023-04-20T03:30:01.146Z,99443.02
2023-04-20T03:32:31.426Z,99443.47
2023-04-20T03:35:02.173Z,99438.02
2023-04-20T03:37:31.113Z,99432.67
2023-04-20T03:39:59.510Z,99430.39
2023-04-20T03:42:28.036Z,99426.94
2023-04-20T03:44:56.505Z,99424.73
2023-04-20T03:47:25.183Z,99420.52
2023-04-20T03:49:53.648Z,99416.70
2023-04-20T03:52:21.965Z,99417.32
2023-04-20T03:54:50.469Z,99416.08
2023-04-20T03:57:19.009Z,99410.39
2023-04-20T03:59:47.753Z,99409.04
2023-04-20T04:02:18.887Z,99408.41
2023-04-20T04:04:48.132Z,99414.48
2023-04-20T04:07:16.666Z,99411.07
2023-04-20T04:09:45.499Z,99409.20
2023-04-20T04:12:14.165Z,99408.33
2023-04-20T04:14:42.615Z,99412.95
2023-04-20T04:17:15.155Z,99415.52
2023-04-20T04:19:43.830Z,99405.52
2023-04-20T04:22:12.369Z,99393.95
2023-04-20T04:24:49.076Z,99398.68
2023-04-20T04:27:19.371Z,99397.81
2023-04-20T04:29:54.635Z,99395.05
2023-04-20T04:32:24.747Z,99392.85
2023-04-20T04:34:53.980Z,99394.88
2023-04-20T04:37:22.799Z,99399.29
2023-04-20T04:39:53.743Z,99397.26
2023-04-20T04:42:28.287Z,99401.08
2023-04-20T04:44:58.756Z,99397.30
2023-04-20T04:47:32.599Z,99396.45
2023-04-20T04:50:03.504Z,99396.76
2023-04-20T04:52:35.890Z,99393.38
2023-04-20T04:55:08.511Z,99382.04
2023-04-20T04:57:38.834Z,99383.27
2023-04-20T05:00:12.584Z,99377.83
2023-04-20T05:02:41.935Z,99370.58
2023-04-20T05:05:10.516Z,99361.46
2023-04-20T05:07:40.257Z,99375.16
2023-04-20T05:10:09.103Z,99381.30
2023-04-20T05:12:39.616Z,99380.75
2023-04-20T05:15:08.804Z,99384.09
2023-04-20T05:17:37.244Z,99384.00
2023-04-20T05:20:07.658Z,99380.84
2023-04-20T05:22:36.538Z,99386.70
2023-04-20T05:25:06.675Z,99379.33
2023-04-20T05:27:35.673Z,99370.18
2023-04-20T05:30:17.141Z,99365.78
2023-04-20T05:32:51.387Z,99365.88
2023-04-20T05:35:21.867Z,99363.20
2023-04-20T05:37:50.335Z,99355.45
2023-04-20T05:40:18.897Z,99344.16
2023-04-20T05:42:47.315Z,99346.80
2023-04-20T05:45:15.623Z,99354.20
2023-04-20T05:47:58.170Z,99352.16
2023-04-20T05:50:27.782Z,99358.35
2023-04-20T05:52:56.276Z,99354.50
2023-04-20T05:55:24.721Z,99350.93
2023-04-20T05:57:53.169Z,99351.63
2023-04-20T06:00:23.805Z,99357.23
2023-04-20T06:02:55.185Z,99366.73
2023-04-20T06:05:23.882Z,99371.13
2023-04-20T06:07:53.010Z,99374.11
2023-04-20T06:10:21.639Z,99373.98
2023-04-20T06:12:50.172Z,99373.59
2023-04-20T06:15:18.923Z,99376.69
2023-04-20T06:17:47.912Z,99379.63
2023-04-20T06:20:17.082Z,99381.67
2023-04-20T06:22:46.438Z,99384.98
2023-04-20T06:25:18.315Z,99382.52
2023-04-20T06:27:48.181Z,99376.36
2023-04-20T06:30:17.559Z,99374.18
2023-04-20T06:32:46.144Z,99371.10
2023-04-20T06:35:14.544Z,99377.01
2023-04-20T06:37:43.120Z,99389.23
2023-04-20T06:40:12.078Z,99401.56
2023-04-20T06:42:41.355Z,99413.37
2023-04-20T06:45:10.246Z,99415.61
2023-04-20T06:47:38.888Z,99411.80
2023-04-20T06:50:10.183Z,99412.09
2023-04-20T06:52:40.615Z,99427.14
2023-04-20T06:55:10.032Z,99444.23
2023-04-20T06:57:39.911Z,99452.58
2023-04-20T07:00:10.049Z,99440.00
2023-04-20T07:02:43.579Z,99421.45
2023-04-20T07:05:12.360Z,99407.00
2023-04-20T07:07:42.181Z,99410.03
2023-04-20T07:10:12.957Z,99404.63
2023-04-20T07:12:43.919Z,99405.92
2023-04-20T07:15:13.615Z,99401.55
2023-04-20T07:17:42.398Z,99392.84
2023-04-20T07:20:11.355Z,99392.83
2023-04-20T07:22:40.368Z,99388.91
2023-04-20T07:25:09.847Z,99386.41
2023-04-20T07:27:40.652Z,99387.83
2023-04-20T07:30:10.956Z,99387.58
2023-04-20T07:32:41.637Z,99385.50
2023-04-20T07:35:10.593Z,99385.81
2023-04-20T07:37:39.121Z,99387.81
2023-04-20T07:40:08.830Z,99388.65
2023-04-20T07:42:37.838Z,99390.15
2023-04-20T07:45:11.253Z,99390.48
2023-04-20T07:47:41.103Z,99390.96
2023-04-20T07:50:09.686Z,99390.28
2023-04-20T07:52:38.899Z,99379.45
2023-04-20T07:55:08.460Z,99377.02
2023-04-20T07:57:37.027Z,99376.77
2023-04-20T08:00:07.577Z,99374.40
2023-04-20T08:02:42.237Z,99370.88
2023-04-20T08:05:11.682Z,99371.01
2023-04-20T08:07:40.919Z,99372.29
2023-04-20T08:10:10.599Z,99372.41
2023-04-20T08:12:40.681Z,99367.48
2023-04-20T08:15:10.123Z,99359.36
2023-04-20T08:17:38.671Z,99362.05
2023-04-20T08:20:10.798Z,99356.97
2023-04-20T08:22:39.594Z,99356.95
2023-04-20T08:25:08.703Z,99357.39
2023-04-20T08:27:37.266Z,99356.95
2023-04-20T08:30:06.873Z,99362.61
2023-04-20T08:32:35.522Z,99365.85
2023-04-20T08:35:05.286Z,99368.30
2023-04-20T08:37:34.674Z,99372.50
2023-04-20T08:40:03.815Z,99367.08
2023-04-20T08:42:32.537Z,99369.88
2023-04-20T08:45:01.466Z,99366.27
2023-04-20T08:47:31.611Z,99371.39
2023-04-20T08:50:01.110Z,99379.25
2023-04-20T08:52:29.497Z,99379.54
2023-04-20T08:54:58.094Z,99388.35
2023-04-20T08:57:26.571Z,99393.80
2023-04-20T08:59:56.568Z,99386.13
2023-04-20T09:02:25.096Z,99387.10
2023-04-20T09:05:05.324Z,99389.80
2023-04-20T09:07:33.886Z,99391.17
2023-04-20T09:10:02.496Z,99391.80
2023-04-20T09:12:41.212Z,99394.41
2023-04-20T09:15:11.005Z,99396.23
2023-04-20T09:17:41.478Z,99403.98
2023-04-20T09:20:11.554Z,99406.81
2023-04-20T09:22:41.260Z,99405.02
2023-04-20T09:25:17.079Z,99399.30
2023-04-20T09:28:02.855Z,99391.84
2023-04-20T09:30:49.232Z,99389.48
2023-04-20T09:33:19.804Z,99390.58
2023-04-20T09:35:48.236Z,99391.77
2023-04-20T09:38:17.560Z,99394.10
2023-04-20T09:40:46.160Z,99388.73
2023-04-20T09:43:20.271Z,99393.34
2023-04-20T09:45:49.425Z,99388.98
2023-04-20T09:48:19.659Z,99387.13
2023-04-20T09:50:51.099Z,99385.83
2023-04-20T09:53:20.876Z,99383.05
2023-04-20T09:55:52.183Z,99380.11
2023-04-20T09:58:21.605Z,99386.68
2023-04-20T10:00:51.434Z,99389.10
2023-04-20T10:03:22.169Z,99389.75
2023-04-20T10:05:52.976Z,99383.45
2023-04-20T10:08:22.286Z,99388.27
2023-04-20T10:10:51.797Z,99385.48
2023-04-20T10:13:22.138Z,99382.91
2023-04-20T10:15:50.560Z,99380.45
2023-04-20T10:18:23.930Z,99375.77
2023-04-20T10:21:06.111Z,99383.44
2023-04-20T10:23:34.970Z,99394.63
2023-04-20T10:26:04.110Z,99398.41
2023-04-20T10:28:40.864Z,99410.45
2023-04-20T10:31:13.308Z,99416.61
2023-04-20T10:33:55.757Z,99423.12
2023-04-20T10:36:36.969Z,99409.86
2023-04-20T10:39:20.227Z,99401.37
2023-04-20T10:42:04.133Z,99411.40
2023-04-20T10:44:34.384Z,99422.90
2023-04-20T10:47:02.808Z,99425.46
2023-04-20T10:49:32.832Z,99432.32
2023-04-20T10:52:01.732Z,99444.95
2023-04-20T10:54:38.378Z,99448.73
2023-04-20T10:57:07.600Z,99447.98
2023-04-20T10:59:37.486Z,99446.84
2023-04-20T11:02:11.412Z,99437.73
2023-04-20T11:04:39.842Z,99435.55
2023-04-20T11:07:10.470Z,99443.90
2023-04-20T11:09:39.277Z,99448.14
2023-04-20T11:12:12.282Z,99455.00
2023-04-20T11:14:58.276Z,99459.52
2023-04-20T11:17:38.048Z,99456.88
2023-04-20T11:20:14.565Z,99462.99
2023-04-20T11:22:44.261Z,99461.70
2023-04-20T11:25:13.361Z,99454.31
2023-04-20T11:27:43.316Z,99442.30
2023-04-20T11:30:11.941Z,99438.73
2023-04-20T11:32:40.534Z,99433.09
2023-04-20T11:35:11.330Z,99435.38
2023-04-20T11:37:54.955Z,99441.59
2023-04-20T11:40:23.628Z,99427.19
2023-04-20T11:42:52.136Z,99413.83
2023-04-20T11:45:20.371Z,99415.87
2023-04-20T11:47:49.557Z,99420.52
2023-04-20T11:50:17.961Z,99408.88
2023-04-20T11:52:46.317Z,99391.17
2023-04-20T11:55:14.892Z,99382.42
2023-04-20T11:57:43.793Z,99378.50
2023-04-20T12:00:13.320Z,99385.88
2023-04-20T12:02:44.276Z,99375.95
2023-04-20T12:05:12.826Z,99379.40
2023-04-20T12:07:42.081Z,99383.66
2023-04-20T12:10:10.749Z,99383.33
2023-04-20T12:12:42.332Z,99380.07
2023-04-20T12:15:10.934Z,99378.84
2023-04-20T12:17:39.713Z,99377.73
2023-04-20T12:20:11.742Z,99383.36
2023-04-20T12:22:41.120Z,99386.20
2023-04-20T12:25:09.866Z,99380.24
2023-04-20T12:27:38.455Z,99385.34
2023-04-20T12:30:09.434Z,99383.69
2023-04-20T12:32:39.930Z,99379.07
2023-04-20T12:35:08.706Z,99373.61
2023-04-20T12:37:37.838Z,99374.71
2023-04-20T12:40:07.396Z,99369.79
2023-04-20T12:42:36.438Z,99369.89
2023-04-20T12:45:05.117Z,99376.66
2023-04-20T12:47:33.565Z,99367.53
2023-04-20T12:50:02.492Z,99359.27
2023-04-20T12:52:31.110Z,99355.84
2023-04-20T12:54:59.879Z,99356.41
2023-04-20T12:57:28.527Z,99359.77
2023-04-20T12:59:56.780Z,99364.15
2023-04-20T13:02:25.348Z,99365.48
2023-04-20T13:04:53.764Z,99369.55
2023-04-20T13:07:22.193Z,99362.98
2023-04-20T13:09:50.614Z,99379.13
2023-04-20T13:12:19.242Z,99387.50
2023-04-20T13:14:47.605Z,99392.88
2023-04-20T13:17:16.608Z,99382.08
2023-04-20T13:19:47.575Z,99377.54
2023-04-20T13:22:18.799Z,99373.79
2023-04-20T13:24:47.570Z,99368.70
2023-04-20T13:27:15.901Z,99366.30
2023-04-20T13:29:44.267Z,99360.14
2023-04-20T13:32:12.759Z,99360.31
2023-04-20T13:34:41.257Z,99362.61
2023-04-20T13:37:10.159Z,99362.36
2023-04-20T13:39:38.475Z,99363.27
2023-04-20T13:42:06.859Z,99363.11
2023-04-20T13:44:36.151Z,99368.81
2023-04-20T13:47:04.726Z,99378.36
2023-04-20T13:49:33.181Z,99382.27
2023-04-20T13:52:02.034Z,99383.68
2023-04-20T13:54:30.682Z,99380.68
2023-04-20T13:56:59.151Z,99383.02
2023-04-20T13:59:27.489Z,99385.67
2023-04-20T14:01:55.862Z,99387.30
2023-04-20T14:04:24.387Z,99383.77
2023-04-20T14:06:53.218Z,99372.27
2023-04-20T14:09:21.688Z,99372.30
2023-04-20T14:11:52.865Z,99375.70
2023-04-20T14:14:23.941Z,99382.36
2023-04-20T14:16:52.325Z,99380.53
2023-04-20T14:19:20.563Z,99376.73
2023-04-20T14:21:50.122Z,99372.69
2023-04-20T14:24:18.890Z,99375.66
2023-04-20T14:26:47.508Z,99373.13
2023-04-20T14:29:15.996Z,99372.02
2023-04-20T14:31:44.535Z,99369.98
2023-04-20T14:34:16.306Z,99366.12
2023-04-20T14:36:45.650Z,99368.57
2023-04-20T14:39:14.832Z,99371.20
2023-04-20T14:41:43.098Z,99372.27
2023-04-20T14:44:11.484Z,99371.02
2023-04-20T14:46:42.446Z,99372.42
2023-04-20T14:49:11.407Z,99374.30
2023-04-20T14:51:39.648Z,99377.27
2023-04-20T14:54:07.921Z,99377.01
2023-04-20T14:56:36.213Z,99376.28
2023-04-20T14:59:04.634Z,99375.27
2023-04-20T15:01:34.168Z,99374.44
2023-04-20T15:04:03.002Z,99380.09
2023-04-20T15:06:32.400Z,99384.75
2023-04-20T15:09:00.893Z,99389.77
2023-04-20T15:11:29.529Z,99400.23
2023-04-20T15:13:57.963Z,99402.91
2023-04-20T15:16:26.569Z,99396.81
2023-04-20T15:18:54.914Z,99390.12
2023-04-20T15:21:23.757Z,99381.04
2023-04-20T15:23:52.095Z,99377.40
2023-04-20T15:26:20.593Z,99371.30
2023-04-20T15:28:50.257Z,99369.02
2023-04-20T15:31:19.492Z,99375.78
2023-04-20T15:33:50.551Z,99371.33
2023-04-20T15:36:20.710Z,99369.20
2023-04-20T15:38:49.033Z,99367.02
2023-04-20T15:41:17.493Z,99372.47
2023-04-20T15:43:46.195Z,99379.29
2023-04-20T15:46:14.572Z,99387.02
2023-04-20T15:48:45.131Z,99389.11
2023-04-20T15:51:14.022Z,99386.66
2023-04-20T15:53:44.967Z,99385.23
2023-04-20T15:56:13.654Z,99383.84
2023-04-20T15:58:42.115Z,99381.77
2023-04-20T16:01:10.508Z,99378.74
2023-04-20T16:03:39.743Z,99376.37
2023-04-20T16:06:08.704Z,99382.41
2023-04-20T16:08:38.462Z,99385.45
2023-04-20T16:11:07.404Z,99385.32
2023-04-20T16:13:36.646Z,99390.21
2023-04-20T16:16:05.184Z,99387.41
2023-04-20T16:18:34.158Z,99390.61
2023-04-20T16:21:02.580Z,99397.73
2023-04-20T16:23:31.606Z,99408.52
2023-04-20T16:25:59.979Z,99414.65
2023-04-20T16:28:28.267Z,99418.23
2023-04-20T16:30:56.671Z,99422.86
2023-04-20T16:33:25.671Z,99425.63
2023-04-20T16:35:53.941Z,99422.45
2023-04-20T16:38:22.928Z,99421.34
2023-04-20T16:40:52.200Z,99415.55
2023-04-20T16:43:21.908Z,99413.14
2023-04-20T16:45:50.321Z,99413.14
2023-04-20T16:48:18.651Z,99429.77
2023-04-20T16:50:47.037Z,99435.84
2023-04-20T16:53:17.988Z,99427.17
2023-04-20T16:55:46.278Z,99424.62
2023-04-20T16:58:15.365Z,99427.75
2023-04-20T17:00:43.872Z,99427.15
2023-04-20T17:03:13.788Z,99426.40
2023-04-20T17:05:42.899Z,99421.85
2023-04-20T17:08:11.754Z,99418.55
2023-04-20T17:10:40.291Z,99420.58
2023-04-20T17:13:08.823Z,99425.58
2023-04-20T17:15:37.338Z,99423.90
2023-04-20T17:18:07.075Z,99419.11
2023-04-20T17:20:35.580Z,99415.52
2023-04-20T17:23:03.919Z,99418.27
2023-04-20T17:25:33.457Z,99421.14
2023-04-20T17:28:02.871Z,99423.55
2023-04-20T17:30:31.661Z,99425.91
2023-04-20T17:33:00.939Z,99424.67
2023-04-20T17:35:29.402Z,99427.52
2023-04-20T17:37:59.920Z,99428.79
2023-04-20T17:40:28.214Z,99431.17
2023-04-20T17:42:56.733Z,99438.34
2023-04-20T17:45:25.057Z,99440.42
2023-04-20T17:47:53.906Z,99440.95
2023-04-20T17:50:22.870Z,99444.56
2023-04-20T17:52:51.888Z,99444.35
2023-04-20T17:55:20.490Z,99440.56
2023-04-20T17:57:48.839Z,99436.52
2023-04-20T18:00:17.424Z,99433.27
2023-04-20T18:02:46.270Z,99424.14
2023-04-20T18:05:14.667Z,99411.44
2023-04-20T18:07:43.186Z,99405.70
2023-04-20T18:10:13.834Z,99402.17
2023-04-20T18:12:45.050Z,99398.25
2023-04-20T18:15:13.519Z,99394.44
2023-04-20T18:17:42.747Z,99389.15
2023-04-20T18:20:11.456Z,99378.27
2023-04-20T18:22:40.185Z,99374.27
2023-04-20T18:25:08.991Z,99365.92
2023-04-20T18:27:38.026Z,99370.06
2023-04-20T18:30:07.191Z,99369.88
2023-04-20T18:32:38.947Z,99379.91
2023-04-20T18:35:08.560Z,99379.27
2023-04-20T18:37:38.521Z,99371.14
2023-04-20T18:40:08.155Z,99362.64
2023-04-20T18:42:37.128Z,99356.06
2023-04-20T18:45:06.280Z,99349.66
2023-04-20T18:47:34.832Z,99343.29
2023-04-20T18:50:03.816Z,99329.67
2023-04-20T18:52:33.630Z,99320.65
2023-04-20T18:55:02.260Z,99319.54
2023-04-20T18:57:30.881Z,99325.13
2023-04-20T18:59:59.348Z,99331.78
2023-04-20T19:02:27.977Z,99333.45
2023-04-20T19:04:56.552Z,99331.66
2023-04-20T19:07:24.857Z,99332.63
2023-04-20T19:09:53.182Z,99331.11
2023-04-20T19:12:21.831Z,99329.95
2023-04-20T19:14:50.204Z,99331.14
2023-04-20T19:17:18.500Z,99334.02
2023-04-20T19:19:48.295Z,99328.45
2023-04-20T19:22:17.254Z,99324.95
2023-04-20T19:24:46.018Z,99315.31
2023-04-20T19:27:14.507Z,99312.27
2023-04-20T19:29:42.983Z,99317.40
2023-04-20T19:32:11.722Z,99318.55
2023-04-20T19:34:41.956Z,99316.47
2023-04-20T19:37:10.824Z,99312.73
2023-04-20T19:39:39.441Z,99310.95
2023-04-20T19:42:07.975Z,99307.59
2023-04-20T19:44:36.470Z,99305.77
2023-04-20T19:47:04.862Z,99309.90
2023-04-20T19:49:34.156Z,99303.81
2023-04-20T19:52:02.547Z,99306.71
2023-04-20T19:54:31.168Z,99313.97
2023-04-20T19:56:59.494Z,99320.76
2023-04-20T19:59:32.801Z,99328.05
2023-04-20T20:02:01.209Z,99333.60
2023-04-20T20:04:29.871Z,99342.38
2023-04-20T20:06:59.439Z,99340.46
2023-04-20T20:09:27.969Z,99336.08
2023-04-20T20:11:56.463Z,99331.17
2023-04-20T20:14:24.759Z,99329.39
2023-04-20T20:16:53.103Z,99330.75
2023-04-20T20:19:22.221Z,99330.54
2023-04-20T20:21:51.356Z,99330.98
2023-04-20T20:24:20.950Z,99337.30
2023-04-20T20:26:49.729Z,99339.86
2023-04-20T20:29:18.294Z,99338.44
2023-04-20T20:31:47.065Z,99338.93
2023-04-20T20:34:15.604Z,99343.35
2023-04-20T20:36:46.425Z,99339.98
2023-04-20T20:39:16.243Z,99332.51
2023-04-20T20:41:45.084Z,99332.66
2023-04-20T20:44:13.867Z,99331.41
2023-04-20T20:46:42.497Z,99332.02
2023-04-20T20:49:10.973Z,99336.26
2023-04-20T20:51:40.048Z,99337.73
2023-04-20T20:54:08.538Z,99336.64
2023-04-20T20:56:37.380Z,99332.25
2023-04-20T20:59:05.835Z,99328.31
2023-04-20T21:01:34.257Z,99329.93
2023-04-20T21:04:04.849Z,99324.52
2023-04-20T21:06:35.173Z,99319.92
2023-04-20T21:09:04.573Z,99315.22
2023-04-20T21:11:33.067Z,99313.64
2023-04-20T21:14:03.069Z,99312.10
2023-04-20T21:16:31.528Z,99308.71
2023-04-20T21:19:00.067Z,99310.02
2023-04-20T21:21:29.221Z,99305.06
2023-04-20T21:23:57.656Z,99304.89
2023-04-20T21:26:26.173Z,99306.04
2023-04-20T21:28:54.437Z,99306.85
2023-04-20T21:31:22.710Z,99302.02
2023-04-20T21:33:51.071Z,99297.88
2023-04-20T21:36:19.496Z,99297.36
2023-04-20T21:38:47.825Z,99294.55
2023-04-20T21:41:16.258Z,99289.13
2023-04-20T21:43:44.591Z,99282.96
2023-04-20T21:46:16.891Z,99273.15
2023-04-20T21:48:45.461Z,99266.64
2023-04-20T21:51:18.139Z,99258.77
2023-04-20T21:53:46.321Z,99258.46
2023-04-20T21:56:15.138Z,99256.40
2023-04-20T21:58:43.616Z,99259.19
2023-04-20T22:01:12.024Z,99252.02
2023-04-20T22:03:40.535Z,99253.86
2023-04-20T22:06:09.225Z,99247.75
2023-04-20T22:08:40.148Z,99248.01
2023-04-20T22:11:09.149Z,99244.95
2023-04-20T22:13:37.916Z,99237.26
2023-04-20T22:16:06.655Z,99231.66
2023-04-20T22:18:34.946Z,99229.19
2023-04-20T22:21:03.844Z,99225.40
2023-04-20T22:28:52.472Z,99215.50
2023-04-20T22:31:20.795Z,99212.16
2023-04-20T22:33:49.103Z,99207.23
2023-04-20T22:36:17.571Z,99203.31
2023-04-20T22:38:46.002Z,99204.89
2023-04-20T22:41:16.695Z,99200.72
2023-04-20T22:43:45.727Z,99200.77
2023-04-20T22:46:14.030Z,99195.18
2023-04-20T22:48:42.363Z,99193.75
2023-04-20T22:51:10.575Z,99193.12
2023-04-20T22:53:38.845Z,99194.48
2023-04-20T22:56:08.101Z,99193.27
2023-04-20T22:58:36.691Z,99192.71
2023-04-20T23:01:05.240Z,99191.89
2023-04-20T23:03:34.031Z,99187.61
2023-04-20T23:06:03.097Z,99191.77
2023-04-20T23:08:34.149Z,99195.58
2023-04-20T23:11:02.505Z,99200.55
2023-04-20T23:13:31.470Z,99199.47
2023-04-20T23:15:59.954Z,99197.77
2023-04-20T23:18:28.348Z,99195.77
2023-04-20T23:20:57.158Z,99194.55
2023-04-20T23:23:25.713Z,99196.05
2023-04-20T23:25:54.022Z,99194.28
2023-04-20T23:28:22.814Z,99196.23
2023-04-20T23:30:51.295Z,99197.53
2023-04-20T23:33:19.525Z,99193.67
2023-04-20T23:35:47.818Z,99189.40
2023-04-20T23:38:16.577Z,99185.13
2023-04-20T23:40:44.884Z,99183.80
2023-04-20T23:43:13.555Z,99184.11
2023-04-20T23:45:41.851Z,99175.83
2023-04-20T23:48:10.204Z,99170.98
2023-04-20T23:50:38.543Z,99173.29
2023-04-20T23:53:07.755Z,99169.46
2023-04-20T23:55:36.104Z,99166.98
2023-04-20T23:58:04.577Z,99160.67
